sensor_id;sensor_type;location;lat;lon;timestamp;P1;durP1;ratioP1;P2;durP2;ratioP2
37559;SDS011;23398;50.928;7.084;2023-08-08T00:01:41;2.88;;;1.35;;
37559;SDS011;23398;50.928;7.084;2023-08-08T00:04:08;3.42;;;1.38;;
37559;SDS011;23398;50.928;7.084;2023-08-08T00:06:35;5.28;;;1.67;;
37559;SDS011;23398;50.928;7.084;2023-08-08T00:09:00;1.35;;;1.25;;
37559;SDS011;23398;50.928;7.084;2023-08-08T00:11:26;2.58;;;1.30;;
37559;SDS011;23398;50.928;7.084;2023-08-08T00:13:51;2.65;;;1.50;;
37559;SDS011;23398;50.928;7.084;2023-08-08T00:16:17;2.83;;;1.33;;
37559;SDS011;23398;50.928;7.084;2023-08-08T00:18:43;1.48;;;1.30;;
37559;SDS011;23398;50.928;7.084;2023-08-08T00:21:08;2.03;;;1.50;;
37559;SDS011;23398;50.928;7.084;2023-08-08T00:23:34;2.15;;;1.55;;
37559;SDS011;23398;50.928;7.084;2023-08-08T00:25:59;1.75;;;1.30;;
37559;SDS011;23398;50.928;7.084;2023-08-08T00:28:25;2.00;;;1.50;;
37559;SDS011;23398;50.928;7.084;2023-08-08T00:30:50;2.63;;;1.50;;
37559;SDS011;23398;50.928;7.084;2023-08-08T00:33:16;1.42;;;1.13;;
37559;SDS011;23398;50.928;7.084;2023-08-08T00:35:42;3.78;;;1.63;;
37559;SDS011;23398;50.928;7.084;2023-08-08T00:38:08;3.80;;;1.30;;
37559;SDS011;23398;50.928;7.084;2023-08-08T00:40:34;1.45;;;1.20;;
37559;SDS011;23398;50.928;7.084;2023-08-08T00:43:00;1.58;;;1.30;;
37559;SDS011;23398;50.928;7.084;2023-08-08T00:45:25;1.80;;;1.23;;
37559;SDS011;23398;50.928;7.084;2023-08-08T00:47:51;2.35;;;1.00;;
37559;SDS011;23398;50.928;7.084;2023-08-08T00:50:17;2.10;;;1.50;;
37559;SDS011;23398;50.928;7.084;2023-08-08T00:52:43;1.65;;;1.20;;
37559;SDS011;23398;50.928;7.084;2023-08-08T00:55:09;2.60;;;1.52;;
37559;SDS011;23398;50.928;7.084;2023-08-08T00:57:35;5.00;;;1.42;;
37559;SDS011;23398;50.928;7.084;2023-08-08T01:00:04;1.90;;;1.30;;
37559;SDS011;23398;50.928;7.084;2023-08-08T01:02:34;3.75;;;1.63;;
37559;SDS011;23398;50.928;7.084;2023-08-08T01:05:00;1.98;;;1.58;;
37559;SDS011;23398;50.928;7.084;2023-08-08T01:07:30;1.67;;;1.30;;
37559;SDS011;23398;50.928;7.084;2023-08-08T01:10:12;1.38;;;1.20;;
37559;SDS011;23398;50.928;7.084;2023-08-08T01:13:02;1.60;;;1.30;;
37559;SDS011;23398;50.928;7.084;2023-08-08T01:15:32;1.83;;;1.30;;
37559;SDS011;23398;50.928;7.084;2023-08-08T01:18:02;2.80;;;1.40;;
37559;SDS011;23398;50.928;7.084;2023-08-08T01:20:29;2.75;;;1.40;;
37559;SDS011;23398;50.928;7.084;2023-08-08T01:25:51;1.52;;;1.40;;
37559;SDS011;23398;50.928;7.084;2023-08-08T01:28:20;1.63;;;1.40;;
37559;SDS011;23398;50.928;7.084;2023-08-08T01:30:47;1.63;;;1.10;;
37559;SDS011;23398;50.928;7.084;2023-08-08T01:33:13;1.52;;;1.20;;
37559;SDS011;23398;50.928;7.084;2023-08-08T01:35:39;1.65;;;1.40;;
37559;SDS011;23398;50.928;7.084;2023-08-08T01:38:10;1.58;;;1.33;;
37559;SDS011;23398;50.928;7.084;2023-08-08T01:40:44;1.80;;;1.40;;
37559;SDS011;23398;50.928;7.084;2023-08-08T01:43:11;1.92;;;1.50;;
37559;SDS011;23398;50.928;7.084;2023-08-08T01:45:38;4.40;;;1.85;;
37559;SDS011;23398;50.928;7.084;2023-08-08T01:48:08;1.40;;;1.13;;
37559;SDS011;23398;50.928;7.084;2023-08-08T01:50:34;2.20;;;1.65;;
37559;SDS011;23398;50.928;7.084;2023-08-08T01:53:00;1.55;;;1.25;;
37559;SDS011;23398;50.928;7.084;2023-08-08T01:55:26;1.70;;;1.50;;
37559;SDS011;23398;50.928;7.084;2023-08-08T01:57:52;2.15;;;1.40;;
37559;SDS011;23398;50.928;7.084;2023-08-08T02:00:17;2.42;;;1.15;;
37559;SDS011;23398;50.928;7.084;2023-08-08T02:02:43;1.50;;;1.38;;
37559;SDS011;23398;50.928;7.084;2023-08-08T02:05:09;2.45;;;1.50;;
37559;SDS011;23398;50.928;7.084;2023-08-08T02:07:34;1.70;;;1.50;;
37559;SDS011;23398;50.928;7.084;2023-08-08T02:10:00;3.38;;;1.40;;
37559;SDS011;23398;50.928;7.084;2023-08-08T02:12:25;3.30;;;1.52;;
37559;SDS011;23398;50.928;7.084;2023-08-08T02:14:51;1.83;;;1.40;;
37559;SDS011;23398;50.928;7.084;2023-08-08T02:17:16;2.38;;;1.40;;
37559;SDS011;23398;50.928;7.084;2023-08-08T02:19:42;2.17;;;1.52;;
37559;SDS011;23398;50.928;7.084;2023-08-08T02:22:08;3.03;;;1.60;;
37559;SDS011;23398;50.928;7.084;2023-08-08T02:24:34;1.50;;;1.40;;
37559;SDS011;23398;50.928;7.084;2023-08-08T02:26:59;2.35;;;1.70;;
37559;SDS011;23398;50.928;7.084;2023-08-08T02:29:25;1.80;;;1.27;;
37559;SDS011;23398;50.928;7.084;2023-08-08T02:31:50;2.42;;;1.40;;
37559;SDS011;23398;50.928;7.084;2023-08-08T02:34:16;2.75;;;1.60;;
37559;SDS011;23398;50.928;7.084;2023-08-08T02:36:41;1.90;;;1.35;;
37559;SDS011;23398;50.928;7.084;2023-08-08T02:39:07;1.88;;;1.40;;
37559;SDS011;23398;50.928;7.084;2023-08-08T02:41:32;1.50;;;1.25;;
37559;SDS011;23398;50.928;7.084;2023-08-08T02:43:58;2.85;;;1.30;;
37559;SDS011;23398;50.928;7.084;2023-08-08T02:46:23;2.42;;;1.50;;
37559;SDS011;23398;50.928;7.084;2023-08-08T02:48:49;3.28;;;1.50;;
37559;SDS011;23398;50.928;7.084;2023-08-08T02:51:14;1.48;;;1.38;;
37559;SDS011;23398;50.928;7.084;2023-08-08T02:53:40;1.85;;;1.40;;
37559;SDS011;23398;50.928;7.084;2023-08-08T02:56:05;2.28;;;1.60;;
37559;SDS011;23398;50.928;7.084;2023-08-08T02:58:31;1.95;;;1.40;;
37559;SDS011;23398;50.928;7.084;2023-08-08T03:00:57;2.55;;;1.58;;
37559;SDS011;23398;50.928;7.084;2023-08-08T03:03:22;4.10;;;1.77;;
37559;SDS011;23398;50.928;7.084;2023-08-08T03:05:49;1.50;;;1.40;;
37559;SDS011;23398;50.928;7.084;2023-08-08T03:08:14;7.22;;;1.80;;
37559;SDS011;23398;50.928;7.084;2023-08-08T03:10:40;2.70;;;1.50;;
37559;SDS011;23398;50.928;7.084;2023-08-08T03:13:06;3.25;;;1.70;;
37559;SDS011;23398;50.928;7.084;2023-08-08T03:15:32;1.95;;;1.30;;
37559;SDS011;23398;50.928;7.084;2023-08-08T03:17:57;1.40;;;1.30;;
37559;SDS011;23398;50.928;7.084;2023-08-08T03:20:23;9.02;;;1.60;;
37559;SDS011;23398;50.928;7.084;2023-08-08T03:22:48;1.83;;;1.38;;
37559;SDS011;23398;50.928;7.084;2023-08-08T03:25:14;2.15;;;1.55;;
37559;SDS011;23398;50.928;7.084;2023-08-08T03:27:40;4.53;;;1.52;;
37559;SDS011;23398;50.928;7.084;2023-08-08T03:30:05;2.38;;;1.77;;
37559;SDS011;23398;50.928;7.084;2023-08-08T03:32:31;2.25;;;1.40;;
37559;SDS011;23398;50.928;7.084;2023-08-08T03:34:57;3.22;;;1.58;;
37559;SDS011;23398;50.928;7.084;2023-08-08T03:37:23;1.70;;;1.30;;
37559;SDS011;23398;50.928;7.084;2023-08-08T03:39:48;2.35;;;1.55;;
37559;SDS011;23398;50.928;7.084;2023-08-08T03:42:14;2.75;;;1.65;;
37559;SDS011;23398;50.928;7.084;2023-08-08T03:44:39;2.75;;;1.70;;
37559;SDS011;23398;50.928;7.084;2023-08-08T03:47:06;2.75;;;1.67;;
37559;SDS011;23398;50.928;7.084;2023-08-08T03:49:32;2.35;;;1.58;;
37559;SDS011;23398;50.928;7.084;2023-08-08T03:51:58;2.28;;;1.75;;
37559;SDS011;23398;50.928;7.084;2023-08-08T03:54:23;2.42;;;1.63;;
37559;SDS011;23398;50.928;7.084;2023-08-08T03:56:49;2.38;;;1.42;;
37559;SDS011;23398;50.928;7.084;2023-08-08T03:59:14;4.03;;;1.42;;
37559;SDS011;23398;50.928;7.084;2023-08-08T04:01:40;2.78;;;1.80;;
37559;SDS011;23398;50.928;7.084;2023-08-08T04:04:05;3.45;;;1.70;;
37559;SDS011;23398;50.928;7.084;2023-08-08T04:06:31;2.17;;;1.70;;
37559;SDS011;23398;50.928;7.084;2023-08-08T04:08:57;2.58;;;1.70;;
37559;SDS011;23398;50.928;7.084;2023-08-08T04:11:22;3.00;;;1.60;;
37559;SDS011;23398;50.928;7.084;2023-08-08T04:13:48;2.58;;;2.00;;
37559;SDS011;23398;50.928;7.084;2023-08-08T04:16:13;3.10;;;1.80;;
37559;SDS011;23398;50.928;7.084;2023-08-08T04:18:39;2.20;;;1.67;;
37559;SDS011;23398;50.928;7.084;2023-08-08T04:21:05;2.83;;;1.65;;
37559;SDS011;23398;50.928;7.084;2023-08-08T04:23:31;3.35;;;1.58;;
37559;SDS011;23398;50.928;7.084;2023-08-08T04:25:56;2.03;;;1.40;;
37559;SDS011;23398;50.928;7.084;2023-08-08T04:28:22;4.50;;;1.50;;
37559;SDS011;23398;50.928;7.084;2023-08-08T04:30:47;1.80;;;1.50;;
37559;SDS011;23398;50.928;7.084;2023-08-08T04:33:13;3.92;;;1.70;;
37559;SDS011;23398;50.928;7.084;2023-08-08T04:35:39;1.70;;;1.50;;
37559;SDS011;23398;50.928;7.084;2023-08-08T04:38:04;4.97;;;1.60;;
37559;SDS011;23398;50.928;7.084;2023-08-08T04:40:30;3.45;;;1.55;;
37559;SDS011;23398;50.928;7.084;2023-08-08T04:42:55;6.07;;;2.20;;
37559;SDS011;23398;50.928;7.084;2023-08-08T04:45:21;3.35;;;2.20;;
37559;SDS011;23398;50.928;7.084;2023-08-08T04:47:47;2.85;;;2.00;;
37559;SDS011;23398;50.928;7.084;2023-08-08T04:50:12;3.65;;;1.80;;
37559;SDS011;23398;50.928;7.084;2023-08-08T04:52:38;2.47;;;1.88;;
37559;SDS011;23398;50.928;7.084;2023-08-08T04:55:04;2.08;;;1.80;;
37559;SDS011;23398;50.928;7.084;2023-08-08T04:57:30;3.25;;;1.77;;
37559;SDS011;23398;50.928;7.084;2023-08-08T04:59:56;2.90;;;1.90;;
37559;SDS011;23398;50.928;7.084;2023-08-08T05:02:22;2.92;;;2.00;;
37559;SDS011;23398;50.928;7.084;2023-08-08T05:04:47;4.72;;;1.85;;
37559;SDS011;23398;50.928;7.084;2023-08-08T05:07:14;3.15;;;1.55;;
37559;SDS011;23398;50.928;7.084;2023-08-08T05:09:40;3.17;;;2.58;;
37559;SDS011;23398;50.928;7.084;2023-08-08T05:12:06;7.40;;;4.45;;
37559;SDS011;23398;50.928;7.084;2023-08-08T05:14:32;3.05;;;2.75;;
37559;SDS011;23398;50.928;7.084;2023-08-08T05:16:57;2.78;;;2.28;;
37559;SDS011;23398;50.928;7.084;2023-08-08T05:19:23;2.08;;;1.83;;
37559;SDS011;23398;50.928;7.084;2023-08-08T05:21:50;2.15;;;1.80;;
37559;SDS011;23398;50.928;7.084;2023-08-08T05:24:15;2.88;;;2.05;;
37559;SDS011;23398;50.928;7.084;2023-08-08T05:26:41;4.22;;;2.15;;
37559;SDS011;23398;50.928;7.084;2023-08-08T05:29:06;3.58;;;1.98;;
37559;SDS011;23398;50.928;7.084;2023-08-08T05:31:32;3.08;;;1.90;;
37559;SDS011;23398;50.928;7.084;2023-08-08T05:33:57;2.75;;;1.75;;
37559;SDS011;23398;50.928;7.084;2023-08-08T05:36:23;3.00;;;1.73;;
37559;SDS011;23398;50.928;7.084;2023-08-08T05:38:49;2.92;;;1.80;;
37559;SDS011;23398;50.928;7.084;2023-08-08T05:41:14;2.47;;;1.80;;
37559;SDS011;23398;50.928;7.084;2023-08-08T05:43:40;3.50;;;1.90;;
37559;SDS011;23398;50.928;7.084;2023-08-08T05:46:06;2.25;;;1.60;;
37559;SDS011;23398;50.928;7.084;2023-08-08T05:48:31;2.92;;;1.90;;
37559;SDS011;23398;50.928;7.084;2023-08-08T05:50:57;3.90;;;1.98;;
37559;SDS011;23398;50.928;7.084;2023-08-08T05:53:23;2.58;;;1.58;;
37559;SDS011;23398;50.928;7.084;2023-08-08T05:55:49;2.42;;;1.48;;
37559;SDS011;23398;50.928;7.084;2023-08-08T05:58:14;2.95;;;1.60;;
37559;SDS011;23398;50.928;7.084;2023-08-08T06:00:40;3.78;;;1.90;;
37559;SDS011;23398;50.928;7.084;2023-08-08T06:03:06;3.35;;;1.90;;
37559;SDS011;23398;50.928;7.084;2023-08-08T06:05:31;5.22;;;2.13;;
37559;SDS011;23398;50.928;7.084;2023-08-08T06:07:57;4.72;;;2.00;;
37559;SDS011;23398;50.928;7.084;2023-08-08T06:10:22;4.28;;;2.15;;
37559;SDS011;23398;50.928;7.084;2023-08-08T06:12:50;3.97;;;2.30;;
37559;SDS011;23398;50.928;7.084;2023-08-08T06:15:15;5.57;;;2.70;;
37559;SDS011;23398;50.928;7.084;2023-08-08T06:17:41;5.75;;;2.53;;
37559;SDS011;23398;50.928;7.084;2023-08-08T06:20:07;5.50;;;2.45;;
37559;SDS011;23398;50.928;7.084;2023-08-08T06:22:34;5.22;;;2.20;;
37559;SDS011;23398;50.928;7.084;2023-08-08T06:25:00;6.45;;;2.75;;
37559;SDS011;23398;50.928;7.084;2023-08-08T06:27:25;4.03;;;2.20;;
37559;SDS011;23398;50.928;7.084;2023-08-08T06:29:51;4.20;;;2.03;;
37559;SDS011;23398;50.928;7.084;2023-08-08T06:32:17;5.50;;;2.33;;
37559;SDS011;23398;50.928;7.084;2023-08-08T06:34:42;8.27;;;2.10;;
37559;SDS011;23398;50.928;7.084;2023-08-08T06:37:08;4.43;;;2.10;;
37559;SDS011;23398;50.928;7.084;2023-08-08T06:39:34;3.85;;;2.00;;
37559;SDS011;23398;50.928;7.084;2023-08-08T06:42:00;5.35;;;2.03;;
37559;SDS011;23398;50.928;7.084;2023-08-08T06:44:25;4.97;;;1.80;;
37559;SDS011;23398;50.928;7.084;2023-08-08T06:46:51;3.33;;;2.10;;
37559;SDS011;23398;50.928;7.084;2023-08-08T06:49:17;4.28;;;2.13;;
37559;SDS011;23398;50.928;7.084;2023-08-08T06:51:42;4.28;;;2.10;;
37559;SDS011;23398;50.928;7.084;2023-08-08T06:54:08;4.72;;;2.00;;
37559;SDS011;23398;50.928;7.084;2023-08-08T06:56:33;3.88;;;1.85;;
37559;SDS011;23398;50.928;7.084;2023-08-08T06:58:59;3.92;;;1.70;;
37559;SDS011;23398;50.928;7.084;2023-08-08T07:01:24;4.82;;;1.67;;
37559;SDS011;23398;50.928;7.084;2023-08-08T07:03:50;5.53;;;1.98;;
37559;SDS011;23398;50.928;7.084;2023-08-08T07:06:19;3.53;;;1.80;;
37559;SDS011;23398;50.928;7.084;2023-08-08T07:08:44;3.78;;;1.98;;
37559;SDS011;23398;50.928;7.084;2023-08-08T07:11:10;3.65;;;1.88;;
37559;SDS011;23398;50.928;7.084;2023-08-08T07:13:35;4.28;;;1.85;;
37559;SDS011;23398;50.928;7.084;2023-08-08T07:16:01;3.45;;;1.70;;
37559;SDS011;23398;50.928;7.084;2023-08-08T07:18:27;3.03;;;1.58;;
37559;SDS011;23398;50.928;7.084;2023-08-08T07:20:52;3.75;;;1.80;;
37559;SDS011;23398;50.928;7.084;2023-08-08T07:23:18;3.33;;;1.40;;
37559;SDS011;23398;50.928;7.084;2023-08-08T07:25:44;2.70;;;1.52;;
37559;SDS011;23398;50.928;7.084;2023-08-08T07:28:10;5.22;;;1.77;;
37559;SDS011;23398;50.928;7.084;2023-08-08T07:30:36;5.43;;;2.00;;
37559;SDS011;23398;50.928;7.084;2023-08-08T07:33:01;3.28;;;1.75;;
37559;SDS011;23398;50.928;7.084;2023-08-08T07:35:27;3.90;;;1.70;;
37559;SDS011;23398;50.928;7.084;2023-08-08T07:37:53;4.35;;;2.10;;
37559;SDS011;23398;50.928;7.084;2023-08-08T07:40:19;3.42;;;1.83;;
37559;SDS011;23398;50.928;7.084;2023-08-08T07:42:48;4.97;;;2.00;;
37559;SDS011;23398;50.928;7.084;2023-08-08T07:45:14;3.10;;;1.75;;
37559;SDS011;23398;50.928;7.084;2023-08-08T07:47:40;4.85;;;2.00;;
37559;SDS011;23398;50.928;7.084;2023-08-08T07:50:06;7.65;;;1.80;;
37559;SDS011;23398;50.928;7.084;2023-08-08T07:52:36;3.42;;;1.92;;
37559;SDS011;23398;50.928;7.084;2023-08-08T07:55:02;4.00;;;2.00;;
37559;SDS011;23398;50.928;7.084;2023-08-08T07:57:28;3.88;;;1.70;;
37559;SDS011;23398;50.928;7.084;2023-08-08T07:59:55;2.78;;;2.05;;
37559;SDS011;23398;50.928;7.084;2023-08-08T08:02:20;3.72;;;1.90;;
37559;SDS011;23398;50.928;7.084;2023-08-08T08:04:46;3.90;;;1.92;;
37559;SDS011;23398;50.928;7.084;2023-08-08T08:07:11;3.10;;;1.80;;
37559;SDS011;23398;50.928;7.084;2023-08-08T08:09:38;3.88;;;2.25;;
37559;SDS011;23398;50.928;7.084;2023-08-08T08:12:03;3.25;;;1.55;;
37559;SDS011;23398;50.928;7.084;2023-08-08T08:14:30;4.55;;;1.70;;
37559;SDS011;23398;50.928;7.084;2023-08-08T08:16:55;3.97;;;1.58;;
37559;SDS011;23398;50.928;7.084;2023-08-08T08:19:21;3.75;;;2.10;;
37559;SDS011;23398;50.928;7.084;2023-08-08T08:21:46;3.58;;;1.73;;
37559;SDS011;23398;50.928;7.084;2023-08-08T08:24:12;4.15;;;1.83;;
37559;SDS011;23398;50.928;7.084;2023-08-08T08:26:38;4.03;;;1.73;;
37559;SDS011;23398;50.928;7.084;2023-08-08T08:29:03;3.20;;;1.70;;
37559;SDS011;23398;50.928;7.084;2023-08-08T08:31:29;4.72;;;1.80;;
37559;SDS011;23398;50.928;7.084;2023-08-08T08:33:54;3.28;;;1.92;;
37559;SDS011;23398;50.928;7.084;2023-08-08T08:36:20;5.03;;;1.88;;
37559;SDS011;23398;50.928;7.084;2023-08-08T08:38:46;3.22;;;1.70;;
37559;SDS011;23398;50.928;7.084;2023-08-08T08:41:14;5.60;;;1.98;;
37559;SDS011;23398;50.928;7.084;2023-08-08T08:43:44;3.65;;;1.80;;
37559;SDS011;23398;50.928;7.084;2023-08-08T08:46:09;4.18;;;1.80;;
37559;SDS011;23398;50.928;7.084;2023-08-08T08:48:36;3.85;;;1.90;;
37559;SDS011;23398;50.928;7.084;2023-08-08T08:51:02;3.22;;;1.90;;
37559;SDS011;23398;50.928;7.084;2023-08-08T08:53:28;5.03;;;2.00;;
37559;SDS011;23398;50.928;7.084;2023-08-08T08:55:54;3.17;;;1.90;;
37559;SDS011;23398;50.928;7.084;2023-08-08T08:58:22;3.72;;;2.33;;
37559;SDS011;23398;50.928;7.084;2023-08-08T09:00:49;3.78;;;1.88;;
37559;SDS011;23398;50.928;7.084;2023-08-08T09:03:16;3.90;;;2.20;;
37559;SDS011;23398;50.928;7.084;2023-08-08T09:05:42;4.72;;;2.20;;
37559;SDS011;23398;50.928;7.084;2023-08-08T09:08:09;4.93;;;2.10;;
37559;SDS011;23398;50.928;7.084;2023-08-08T09:10:37;2.50;;;1.75;;
37559;SDS011;23398;50.928;7.084;2023-08-08T09:13:03;4.60;;;1.90;;
37559;SDS011;23398;50.928;7.084;2023-08-08T09:15:30;3.65;;;2.00;;
37559;SDS011;23398;50.928;7.084;2023-08-08T09:17:56;4.35;;;1.95;;
37559;SDS011;23398;50.928;7.084;2023-08-08T09:20:21;4.75;;;2.30;;
37559;SDS011;23398;50.928;7.084;2023-08-08T09:22:47;5.40;;;2.08;;
37559;SDS011;23398;50.928;7.084;2023-08-08T09:25:13;3.30;;;1.95;;
37559;SDS011;23398;50.928;7.084;2023-08-08T09:27:40;4.22;;;2.00;;
37559;SDS011;23398;50.928;7.084;2023-08-08T09:30:08;2.50;;;1.67;;
37559;SDS011;23398;50.928;7.084;2023-08-08T09:32:35;2.65;;;1.75;;
37559;SDS011;23398;50.928;7.084;2023-08-08T09:35:01;2.28;;;1.80;;
37559;SDS011;23398;50.928;7.084;2023-08-08T09:37:27;3.28;;;1.77;;
37559;SDS011;23398;50.928;7.084;2023-08-08T09:39:57;2.97;;;1.55;;
37559;SDS011;23398;50.928;7.084;2023-08-08T09:42:28;2.85;;;1.70;;
37559;SDS011;23398;50.928;7.084;2023-08-08T09:44:55;2.28;;;1.55;;
37559;SDS011;23398;50.928;7.084;2023-08-08T09:47:21;2.72;;;1.73;;
37559;SDS011;23398;50.928;7.084;2023-08-08T09:49:48;2.53;;;1.70;;
37559;SDS011;23398;50.928;7.084;2023-08-08T09:52:14;3.70;;;1.90;;
37559;SDS011;23398;50.928;7.084;2023-08-08T09:54:40;3.08;;;1.77;;
37559;SDS011;23398;50.928;7.084;2023-08-08T09:57:07;2.85;;;1.80;;
37559;SDS011;23398;50.928;7.084;2023-08-08T09:59:33;5.35;;;1.88;;
37559;SDS011;23398;50.928;7.084;2023-08-08T10:01:59;1.70;;;1.60;;
37559;SDS011;23398;50.928;7.084;2023-08-08T10:04:26;3.38;;;1.45;;
37559;SDS011;23398;50.928;7.084;2023-08-08T10:06:52;4.55;;;1.55;;
37559;SDS011;23398;50.928;7.084;2023-08-08T10:09:17;3.83;;;2.05;;
37559;SDS011;23398;50.928;7.084;2023-08-08T10:11:43;2.58;;;1.50;;
37559;SDS011;23398;50.928;7.084;2023-08-08T10:14:09;4.18;;;1.75;;
37559;SDS011;23398;50.928;7.084;2023-08-08T10:16:36;1.90;;;1.38;;
37559;SDS011;23398;50.928;7.084;2023-08-08T10:19:03;4.20;;;1.55;;
37559;SDS011;23398;50.928;7.084;2023-08-08T10:21:33;3.33;;;1.42;;
37559;SDS011;23398;50.928;7.084;2023-08-08T10:24:01;2.38;;;1.40;;
37559;SDS011;23398;50.928;7.084;2023-08-08T10:26:30;5.05;;;1.55;;
37559;SDS011;23398;50.928;7.084;2023-08-08T10:28:56;3.22;;;1.50;;
37559;SDS011;23398;50.928;7.084;2023-08-08T10:31:23;2.70;;;1.55;;
37559;SDS011;23398;50.928;7.084;2023-08-08T10:33:49;2.50;;;1.45;;
37559;SDS011;23398;50.928;7.084;2023-08-08T10:36:14;4.72;;;2.00;;
37559;SDS011;23398;50.928;7.084;2023-08-08T10:38:44;1.95;;;1.58;;
37559;SDS011;23398;50.928;7.084;2023-08-08T10:41:16;2.85;;;1.60;;
37559;SDS011;23398;50.928;7.084;2023-08-08T10:46:22;2.65;;;1.50;;
37559;SDS011;23398;50.928;7.084;2023-08-08T10:48:53;2.80;;;1.60;;
37559;SDS011;23398;50.928;7.084;2023-08-08T10:51:20;2.70;;;1.40;;
37559;SDS011;23398;50.928;7.084;2023-08-08T10:53:46;2.00;;;1.40;;
37559;SDS011;23398;50.928;7.084;2023-08-08T10:56:17;2.42;;;1.58;;
37559;SDS011;23398;50.928;7.084;2023-08-08T10:58:47;2.45;;;1.45;;
37559;SDS011;23398;50.928;7.084;2023-08-08T11:01:13;3.53;;;1.80;;
37559;SDS011;23398;50.928;7.084;2023-08-08T11:03:41;2.95;;;1.50;;
37559;SDS011;23398;50.928;7.084;2023-08-08T11:06:08;2.30;;;1.40;;
37559;SDS011;23398;50.928;7.084;2023-08-08T11:08:35;3.08;;;1.50;;
37559;SDS011;23398;50.928;7.084;2023-08-08T11:11:03;3.55;;;1.50;;
37559;SDS011;23398;50.928;7.084;2023-08-08T11:13:31;4.07;;;1.73;;
37559;SDS011;23398;50.928;7.084;2023-08-08T11:15:56;2.95;;;1.45;;
37559;SDS011;23398;50.928;7.084;2023-08-08T11:18:22;2.55;;;1.60;;
37559;SDS011;23398;50.928;7.084;2023-08-08T11:20:48;3.80;;;1.63;;
37559;SDS011;23398;50.928;7.084;2023-08-08T11:23:14;2.42;;;1.52;;
37559;SDS011;23398;50.928;7.084;2023-08-08T11:25:42;2.40;;;1.40;;
37559;SDS011;23398;50.928;7.084;2023-08-08T11:28:10;2.97;;;1.58;;
37559;SDS011;23398;50.928;7.084;2023-08-08T11:30:37;2.90;;;1.40;;
37559;SDS011;23398;50.928;7.084;2023-08-08T11:33:06;3.28;;;2.05;;
37559;SDS011;23398;50.928;7.084;2023-08-08T11:35:32;1.83;;;1.40;;
37559;SDS011;23398;50.928;7.084;2023-08-08T11:37:59;1.85;;;1.20;;
37559;SDS011;23398;50.928;7.084;2023-08-08T11:40:26;1.77;;;1.48;;
37559;SDS011;23398;50.928;7.084;2023-08-08T11:42:53;2.63;;;1.50;;
37559;SDS011;23398;50.928;7.084;2023-08-08T11:45:20;2.67;;;1.55;;
37559;SDS011;23398;50.928;7.084;2023-08-08T11:47:49;2.67;;;1.50;;
37559;SDS011;23398;50.928;7.084;2023-08-08T11:50:16;2.80;;;1.35;;
37559;SDS011;23398;50.928;7.084;2023-08-08T11:52:45;3.78;;;1.60;;
37559;SDS011;23398;50.928;7.084;2023-08-08T11:55:11;2.92;;;1.27;;
37559;SDS011;23398;50.928;7.084;2023-08-08T11:57:38;2.72;;;1.38;;
37559;SDS011;23398;50.928;7.084;2023-08-08T12:00:10;1.88;;;1.42;;
37559;SDS011;23398;50.928;7.084;2023-08-08T12:02:42;2.58;;;1.80;;
37559;SDS011;23398;50.928;7.084;2023-08-08T12:05:11;2.45;;;1.45;;
37559;SDS011;23398;50.928;7.084;2023-08-08T12:07:41;1.67;;;1.30;;
37559;SDS011;23398;50.928;7.084;2023-08-08T12:10:16;1.85;;;1.42;;
37559;SDS011;23398;50.928;7.084;2023-08-08T12:12:46;3.67;;;1.35;;
37559;SDS011;23398;50.928;7.084;2023-08-08T12:15:17;1.92;;;1.27;;
37559;SDS011;23398;50.928;7.084;2023-08-08T12:17:42;3.10;;;1.48;;
37559;SDS011;23398;50.928;7.084;2023-08-08T12:20:08;1.77;;;1.40;;
37559;SDS011;23398;50.928;7.084;2023-08-08T12:22:36;3.20;;;1.40;;
37559;SDS011;23398;50.928;7.084;2023-08-08T12:25:02;3.47;;;1.42;;
37559;SDS011;23398;50.928;7.084;2023-08-08T12:27:29;2.45;;;1.45;;
37559;SDS011;23398;50.928;7.084;2023-08-08T12:29:55;1.77;;;1.10;;
37559;SDS011;23398;50.928;7.084;2023-08-08T12:32:20;5.00;;;1.45;;
37559;SDS011;23398;50.928;7.084;2023-08-08T12:34:48;1.95;;;1.40;;
37559;SDS011;23398;50.928;7.084;2023-08-08T12:37:22;4.60;;;1.33;;
37559;SDS011;23398;50.928;7.084;2023-08-08T12:39:48;2.67;;;1.50;;
37559;SDS011;23398;50.928;7.084;2023-08-08T12:42:14;3.55;;;1.40;;
37559;SDS011;23398;50.928;7.084;2023-08-08T12:44:40;2.75;;;1.35;;
37559;SDS011;23398;50.928;7.084;2023-08-08T12:47:05;3.38;;;1.50;;
37559;SDS011;23398;50.928;7.084;2023-08-08T12:49:31;3.05;;;1.60;;
37559;SDS011;23398;50.928;7.084;2023-08-08T12:51:56;1.75;;;1.33;;
37559;SDS011;23398;50.928;7.084;2023-08-08T12:54:22;2.72;;;1.30;;
37559;SDS011;23398;50.928;7.084;2023-08-08T12:56:47;4.43;;;1.48;;
37559;SDS011;23398;50.928;7.084;2023-08-08T12:59:13;3.00;;;1.35;;
37559;SDS011;23398;50.928;7.084;2023-08-08T13:01:39;3.45;;;1.50;;
37559;SDS011;23398;50.928;7.084;2023-08-08T13:04:04;2.08;;;1.30;;
37559;SDS011;23398;50.928;7.084;2023-08-08T13:06:30;3.67;;;1.70;;
37559;SDS011;23398;50.928;7.084;2023-08-08T13:08:56;2.95;;;1.33;;
37559;SDS011;23398;50.928;7.084;2023-08-08T13:11:22;7.45;;;1.63;;
37559;SDS011;23398;50.928;7.084;2023-08-08T13:13:47;2.75;;;1.45;;
37559;SDS011;23398;50.928;7.084;2023-08-08T13:16:13;3.20;;;1.52;;
37559;SDS011;23398;50.928;7.084;2023-08-08T13:18:39;4.32;;;1.50;;
37559;SDS011;23398;50.928;7.084;2023-08-08T13:21:05;2.95;;;1.75;;
37559;SDS011;23398;50.928;7.084;2023-08-08T13:23:31;2.80;;;1.40;;
37559;SDS011;23398;50.928;7.084;2023-08-08T13:25:57;2.97;;;1.50;;
37559;SDS011;23398;50.928;7.084;2023-08-08T13:28:23;4.00;;;1.67;;
37559;SDS011;23398;50.928;7.084;2023-08-08T13:30:48;3.70;;;1.70;;
37559;SDS011;23398;50.928;7.084;2023-08-08T13:33:14;4.82;;;1.90;;
37559;SDS011;23398;50.928;7.084;2023-08-08T13:35:39;3.38;;;1.80;;
37559;SDS011;23398;50.928;7.084;2023-08-08T13:38:05;2.90;;;1.50;;
37559;SDS011;23398;50.928;7.084;2023-08-08T13:40:32;2.42;;;1.40;;
37559;SDS011;23398;50.928;7.084;2023-08-08T13:42:58;4.53;;;1.40;;
37559;SDS011;23398;50.928;7.084;2023-08-08T13:45:23;2.65;;;1.38;;
37559;SDS011;23398;50.928;7.084;2023-08-08T13:47:49;2.28;;;1.20;;
37559;SDS011;23398;50.928;7.084;2023-08-08T13:50:15;2.17;;;1.45;;
37559;SDS011;23398;50.928;7.084;2023-08-08T13:52:41;3.55;;;1.52;;
37559;SDS011;23398;50.928;7.084;2023-08-08T13:55:09;2.17;;;1.40;;
37559;SDS011;23398;50.928;7.084;2023-08-08T13:57:35;2.20;;;1.20;;
37559;SDS011;23398;50.928;7.084;2023-08-08T14:00:01;2.85;;;1.42;;
37559;SDS011;23398;50.928;7.084;2023-08-08T14:02:28;2.25;;;1.30;;
37559;SDS011;23398;50.928;7.084;2023-08-08T14:04:54;2.33;;;1.50;;
37559;SDS011;23398;50.928;7.084;2023-08-08T14:07:20;3.17;;;1.50;;
37559;SDS011;23398;50.928;7.084;2023-08-08T14:09:46;2.95;;;1.38;;
37559;SDS011;23398;50.928;7.084;2023-08-08T14:12:12;2.25;;;1.20;;
37559;SDS011;23398;50.928;7.084;2023-08-08T14:14:37;2.63;;;1.42;;
37559;SDS011;23398;50.928;7.084;2023-08-08T14:17:03;1.67;;;1.20;;
37559;SDS011;23398;50.928;7.084;2023-08-08T14:19:28;2.35;;;1.40;;
37559;SDS011;23398;50.928;7.084;2023-08-08T14:21:54;2.90;;;1.60;;
37559;SDS011;23398;50.928;7.084;2023-08-08T14:24:20;5.22;;;1.88;;
37559;SDS011;23398;50.928;7.084;2023-08-08T14:26:45;2.90;;;1.60;;
37559;SDS011;23398;50.928;7.084;2023-08-08T14:29:11;3.97;;;1.60;;
37559;SDS011;23398;50.928;7.084;2023-08-08T14:31:36;2.67;;;1.50;;
37559;SDS011;23398;50.928;7.084;2023-08-08T14:34:02;2.58;;;1.42;;
37559;SDS011;23398;50.928;7.084;2023-08-08T14:36:28;3.90;;;1.58;;
37559;SDS011;23398;50.928;7.084;2023-08-08T14:38:53;4.50;;;1.45;;
37559;SDS011;23398;50.928;7.084;2023-08-08T14:41:19;1.95;;;1.30;;
37559;SDS011;23398;50.928;7.084;2023-08-08T14:43:45;2.00;;;1.30;;
37559;SDS011;23398;50.928;7.084;2023-08-08T14:46:11;2.72;;;1.35;;
37559;SDS011;23398;50.928;7.084;2023-08-08T14:48:37;3.03;;;1.17;;